BEL4MYR DIAP-EBBR
Flight info
| Callsign | BEL4MYR |
|---|---|
| Flight time | N/A |
| Altitude | 39000 |
| Route | TAVAL DCT TUSEK DCT SN DCT ARLEX DCT NUVOS DCT KIMRI DCT TUREB/N0474F400 DCT EKDOM DCT NAVKI/N0477F390 DCT IPUTA DCT SERAG DCT ERNEG DCT BIDOM DCT INAMA DCT TMS/N0470F400 DCT ATCHA DCT GHA/N0468F390 DCT BERIA DCT KAHIL DCT BSA DCT BJA DCT DOLIS/N0467F400 DCT NEVIX DCT ROVOT DCT MTL DCT LL702 DCT CLM DCT KOPOR DCT SOMIL DCT OBIVA DCT ARVOL |
| Aircraft | A333/H-SDE3GHIJ2J3J5M1RVWXY/LB2D1 |
Departure
| Time | 2026-05-05 05:40 |
|---|---|
| Airport | Félix-Houphouët-Boigny International Airport (DIAP) |
Arrival
| Time | N/A |
|---|---|
| Airport | Brussels Airport (EBBR) |
| Time | Latitude | Longitude | Altitude | Speed | Heading |
|---|---|---|---|---|---|
| 2026-05-05 05:32 | 5.26252 | -3.92837 | 32 ft | 0 kts | 154° |
| 2026-05-05 05:36 | 5.26250 | -3.92836 | 32 ft | 1 kts | 153° |
| 2026-05-05 05:36 | 5.26246 | -3.92829 | 32 ft | 3 kts | 121° |
| 2026-05-05 05:36 | 5.26257 | -3.92801 | 32 ft | 7 kts | 69° |
| 2026-05-05 05:37 | 5.26265 | -3.92746 | 31 ft | 8 kts | 72° |
| 2026-05-05 05:37 | 5.26309 | -3.92705 | 31 ft | 10 kts | 32° |
| 2026-05-05 05:37 | 5.26391 | -3.92671 | 31 ft | 15 kts | 22° |
| 2026-05-05 05:37 | 5.26505 | -3.92621 | 30 ft | 19 kts | 24° |
| 2026-05-05 05:38 | 5.26630 | -3.92567 | 30 ft | 21 kts | 22° |
| 2026-05-05 05:38 | 5.26765 | -3.92510 | 30 ft | 21 kts | 22° |
| 2026-05-05 05:38 | 5.26905 | -3.92451 | 29 ft | 22 kts | 22° |
| 2026-05-05 05:38 | 5.27040 | -3.92395 | 29 ft | 19 kts | 22° |
| 2026-05-05 05:39 | 5.27144 | -3.92331 | 28 ft | 17 kts | 59° |
| 2026-05-05 05:39 | 5.27147 | -3.92217 | 30 ft | 15 kts | 110° |
| 2026-05-05 05:39 | 5.27092 | -3.92187 | 30 ft | 0 kts | 200° |
| 2026-05-05 05:39 | 5.27026 | -3.92213 | 31 ft | 35 kts | 201° |
| 2026-05-05 05:40 | 5.26577 | -3.92400 | 29 ft | 102 kts | 202° |
| 2026-05-05 05:40 | 5.25759 | -3.92737 | 33 ft | 151 kts | 202° |
| 2026-05-05 05:40 | 5.24680 | -3.93193 | 312 ft | 177 kts | 204° |
| 2026-05-05 05:40 | 5.23577 | -3.93674 | 1184 ft | 168 kts | 202° |
| 2026-05-05 05:41 | 5.22506 | -3.94081 | 1971 ft | 168 kts | 193° |
| 2026-05-05 05:41 | 5.21310 | -3.93864 | 2246 ft | 193 kts | 146° |
| 2026-05-05 05:41 | 5.20539 | -3.92684 | 2513 ft | 221 kts | 104° |
| 2026-05-05 05:41 | 5.20734 | -3.91063 | 2719 ft | 254 kts | 66° |
| 2026-05-05 05:42 | 5.21787 | -3.89583 | 3193 ft | 269 kts | 47° |
| 2026-05-05 05:42 | 5.23193 | -3.88312 | 3906 ft | 272 kts | 40° |
| 2026-05-05 05:42 | 5.24491 | -3.86944 | 4659 ft | 271 kts | 58° |
| 2026-05-05 05:42 | 5.25357 | -3.85263 | 5408 ft | 272 kts | 69° |
| 2026-05-05 05:43 | 5.25942 | -3.83458 | 6182 ft | 273 kts | 75° |
| 2026-05-05 05:43 | 5.26374 | -3.81605 | 6955 ft | 273 kts | 78° |
| 2026-05-05 05:43 | 5.26748 | -3.79724 | 7674 ft | 276 kts | 78° |
| 2026-05-05 05:43 | 5.27119 | -3.77851 | 8405 ft | 278 kts | 77° |
| 2026-05-05 05:44 | 5.27516 | -3.75950 | 9132 ft | 280 kts | 76° |
| 2026-05-05 05:44 | 5.27944 | -3.74032 | 9842 ft | 282 kts | 76° |
| 2026-05-05 05:44 | 5.28396 | -3.72102 | 10391 ft | 292 kts | 76° |
| 2026-05-05 05:44 | 5.28889 | -3.70057 | 10685 ft | 309 kts | 76° |
| 2026-05-05 05:45 | 5.29411 | -3.67911 | 10937 ft | 326 kts | 76° |
| 2026-05-05 05:45 | 5.29965 | -3.65638 | 11183 ft | 342 kts | 76° |
| 2026-05-05 05:45 | 5.30537 | -3.63284 | 11582 ft | 351 kts | 76° |
| 2026-05-05 05:45 | 5.31119 | -3.60886 | 12195 ft | 354 kts | 76° |
| 2026-05-05 05:46 | 5.31701 | -3.58477 | 12877 ft | 355 kts | 76° |
| 2026-05-05 05:46 | 5.32286 | -3.56059 | 13432 ft | 359 kts | 76° |
| 2026-05-05 05:46 | 5.33095 | -3.53668 | 13934 ft | 366 kts | 62° |
| 2026-05-05 05:46 | 5.34711 | -3.51678 | 14457 ft | 375 kts | 42° |
| 2026-05-05 05:47 | 5.36919 | -3.50245 | 14990 ft | 383 kts | 30° |
| 2026-05-05 05:47 | 5.39397 | -3.49188 | 15489 ft | 390 kts | 23° |
| 2026-05-05 05:47 | 5.41984 | -3.48330 | 15979 ft | 394 kts | 20° |
| 2026-05-05 05:47 | 5.44598 | -3.47539 | 16444 ft | 398 kts | 20° |
| 2026-05-05 05:48 | 5.47263 | -3.46728 | 16907 ft | 402 kts | 20° |
| 2026-05-05 05:48 | 5.49938 | -3.45876 | 17348 ft | 405 kts | 21° |